sensor_id;sensor_type;location;lat;lon;timestamp;P1;durP1;ratioP1;P2;durP2;ratioP2
71734;SDS011;59577;52.122;5.406;2023-03-23T00:01:29;5.38;;;2.50;;
71734;SDS011;59577;52.122;5.406;2023-03-23T00:04:10;6.57;;;2.30;;
71734;SDS011;59577;52.122;5.406;2023-03-23T00:06:38;5.47;;;2.40;;
71734;SDS011;59577;52.122;5.406;2023-03-23T00:09:04;5.55;;;2.50;;
71734;SDS011;59577;52.122;5.406;2023-03-23T00:11:31;3.97;;;2.27;;
71734;SDS011;59577;52.122;5.406;2023-03-23T00:14:00;5.88;;;2.80;;
71734;SDS011;59577;52.122;5.406;2023-03-23T00:16:32;8.88;;;2.72;;
71734;SDS011;59577;52.122;5.406;2023-03-23T00:21:27;4.25;;;2.47;;
71734;SDS011;59577;52.122;5.406;2023-03-23T00:24:04;4.53;;;2.43;;
71734;SDS011;59577;52.122;5.406;2023-03-23T00:26:46;5.65;;;2.45;;
71734;SDS011;59577;52.122;5.406;2023-03-23T00:29:14;4.10;;;2.50;;
71734;SDS011;59577;52.122;5.406;2023-03-23T00:31:43;5.47;;;2.22;;
71734;SDS011;59577;52.122;5.406;2023-03-23T00:34:27;5.93;;;2.20;;
71734;SDS011;59577;52.122;5.406;2023-03-23T00:36:57;4.30;;;1.73;;
71734;SDS011;59577;52.122;5.406;2023-03-23T00:39:27;4.25;;;2.10;;
71734;SDS011;59577;52.122;5.406;2023-03-23T00:41:53;2.88;;;1.88;;
71734;SDS011;59577;52.122;5.406;2023-03-23T00:47:02;2.90;;;1.73;;
71734;SDS011;59577;52.122;5.406;2023-03-23T00:49:29;6.80;;;1.90;;
71734;SDS011;59577;52.122;5.406;2023-03-23T00:51:59;5.25;;;2.00;;
71734;SDS011;59577;52.122;5.406;2023-03-23T00:54:26;6.15;;;1.92;;
71734;SDS011;59577;52.122;5.406;2023-03-23T00:56:52;5.85;;;2.00;;
71734;SDS011;59577;52.122;5.406;2023-03-23T00:59:19;3.65;;;1.30;;
71734;SDS011;59577;52.122;5.406;2023-03-23T01:01:45;5.13;;;2.13;;
71734;SDS011;59577;52.122;5.406;2023-03-23T01:04:15;4.63;;;2.03;;
71734;SDS011;59577;52.122;5.406;2023-03-23T01:06:55;2.72;;;1.48;;
71734;SDS011;59577;52.122;5.406;2023-03-23T01:09:22;4.05;;;1.63;;
71734;SDS011;59577;52.122;5.406;2023-03-23T01:11:50;3.73;;;1.70;;
71734;SDS011;59577;52.122;5.406;2023-03-23T01:14:18;3.33;;;1.77;;
71734;SDS011;59577;52.122;5.406;2023-03-23T01:16:53;2.88;;;1.60;;
71734;SDS011;59577;52.122;5.406;2023-03-23T01:19:22;2.53;;;1.52;;
71734;SDS011;59577;52.122;5.406;2023-03-23T01:21:50;2.77;;;1.60;;
71734;SDS011;59577;52.122;5.406;2023-03-23T01:24:18;3.28;;;2.33;;
71734;SDS011;59577;52.122;5.406;2023-03-23T01:26:53;5.20;;;1.48;;
71734;SDS011;59577;52.122;5.406;2023-03-23T01:29:18;6.17;;;2.17;;
71734;SDS011;59577;52.122;5.406;2023-03-23T01:31:44;1.90;;;1.17;;
71734;SDS011;59577;52.122;5.406;2023-03-23T01:34:10;3.37;;;1.50;;
71734;SDS011;59577;52.122;5.406;2023-03-23T01:36:35;2.33;;;1.30;;
71734;SDS011;59577;52.122;5.406;2023-03-23T01:39:12;1.70;;;1.35;;
71734;SDS011;59577;52.122;5.406;2023-03-23T01:41:38;2.40;;;1.30;;
71734;SDS011;59577;52.122;5.406;2023-03-23T01:44:06;3.00;;;1.52;;
71734;SDS011;59577;52.122;5.406;2023-03-23T01:51:09;2.58;;;1.58;;
71734;SDS011;59577;52.122;5.406;2023-03-23T01:53:43;1.70;;;1.20;;
71734;SDS011;59577;52.122;5.406;2023-03-23T01:56:19;1.60;;;1.00;;
71734;SDS011;59577;52.122;5.406;2023-03-23T01:58:52;4.78;;;1.50;;
71734;SDS011;59577;52.122;5.406;2023-03-23T02:01:29;6.97;;;1.60;;
71734;SDS011;59577;52.122;5.406;2023-03-23T02:03:55;2.30;;;1.60;;
71734;SDS011;59577;52.122;5.406;2023-03-23T02:06:23;2.00;;;1.20;;
71734;SDS011;59577;52.122;5.406;2023-03-23T02:08:49;3.40;;;1.37;;
71734;SDS011;59577;52.122;5.406;2023-03-23T02:11:18;2.50;;;1.70;;
71734;SDS011;59577;52.122;5.406;2023-03-23T02:13:44;2.92;;;1.45;;
71734;SDS011;59577;52.122;5.406;2023-03-23T02:27:08;3.10;;;1.65;;
71734;SDS011;59577;52.122;5.406;2023-03-23T02:32:20;9.25;;;2.00;;
71734;SDS011;59577;52.122;5.406;2023-03-23T02:34:57;4.40;;;1.65;;
71734;SDS011;59577;52.122;5.406;2023-03-23T02:37:28;2.87;;;1.20;;
71734;SDS011;59577;52.122;5.406;2023-03-23T02:40:10;4.32;;;1.85;;
71734;SDS011;59577;52.122;5.406;2023-03-23T02:42:37;2.88;;;1.60;;
71734;SDS011;59577;52.122;5.406;2023-03-23T02:45:07;2.63;;;1.70;;
71734;SDS011;59577;52.122;5.406;2023-03-23T02:47:36;3.92;;;1.73;;
71734;SDS011;59577;52.122;5.406;2023-03-23T02:50:03;2.40;;;1.73;;
71734;SDS011;59577;52.122;5.406;2023-03-23T02:52:32;6.30;;;1.77;;
71734;SDS011;59577;52.122;5.406;2023-03-23T02:55:01;2.00;;;1.30;;
71734;SDS011;59577;52.122;5.406;2023-03-23T02:57:28;1.55;;;1.23;;
71734;SDS011;59577;52.122;5.406;2023-03-23T02:59:54;4.60;;;1.50;;
71734;SDS011;59577;52.122;5.406;2023-03-23T03:02:29;4.73;;;1.47;;
71734;SDS011;59577;52.122;5.406;2023-03-23T03:05:04;3.25;;;1.50;;
71734;SDS011;59577;52.122;5.406;2023-03-23T03:10:25;3.90;;;1.50;;
71734;SDS011;59577;52.122;5.406;2023-03-23T03:12:59;4.00;;;1.50;;
71734;SDS011;59577;52.122;5.406;2023-03-23T03:15:34;2.85;;;1.40;;
71734;SDS011;59577;52.122;5.406;2023-03-23T03:18:07;6.03;;;1.52;;
71734;SDS011;59577;52.122;5.406;2023-03-23T03:20:47;2.65;;;1.60;;
71734;SDS011;59577;52.122;5.406;2023-03-23T03:23:18;2.37;;;1.17;;
71734;SDS011;59577;52.122;5.406;2023-03-23T03:25:46;3.67;;;1.50;;
71734;SDS011;59577;52.122;5.406;2023-03-23T03:28:16;4.93;;;1.52;;
71734;SDS011;59577;52.122;5.406;2023-03-23T03:30:54;2.75;;;1.40;;
71734;SDS011;59577;52.122;5.406;2023-03-23T03:33:25;2.92;;;1.15;;
71734;SDS011;59577;52.122;5.406;2023-03-23T03:35:52;2.27;;;0.77;;
71734;SDS011;59577;52.122;5.406;2023-03-23T03:38:20;5.18;;;1.42;;
71734;SDS011;59577;52.122;5.406;2023-03-23T03:40:49;3.58;;;1.20;;
71734;SDS011;59577;52.122;5.406;2023-03-23T03:43:15;2.95;;;1.00;;
71734;SDS011;59577;52.122;5.406;2023-03-23T03:45:43;3.67;;;1.10;;
71734;SDS011;59577;52.122;5.406;2023-03-23T03:48:11;2.47;;;0.60;;
71734;SDS011;59577;52.122;5.406;2023-03-23T03:50:37;5.83;;;1.10;;
71734;SDS011;59577;52.122;5.406;2023-03-23T03:53:04;3.45;;;0.93;;
71734;SDS011;59577;52.122;5.406;2023-03-23T03:55:42;3.83;;;1.15;;
71734;SDS011;59577;52.122;5.406;2023-03-23T03:58:10;2.58;;;0.90;;
71734;SDS011;59577;52.122;5.406;2023-03-23T04:00:36;3.83;;;0.80;;
71734;SDS011;59577;52.122;5.406;2023-03-23T04:03:02;3.80;;;0.88;;
71734;SDS011;59577;52.122;5.406;2023-03-23T04:05:30;3.85;;;1.00;;
71734;SDS011;59577;52.122;5.406;2023-03-23T04:07:59;4.67;;;1.27;;
71734;SDS011;59577;52.122;5.406;2023-03-23T04:10:28;3.88;;;0.90;;
71734;SDS011;59577;52.122;5.406;2023-03-23T04:13:00;2.07;;;0.60;;
71734;SDS011;59577;52.122;5.406;2023-03-23T04:15:26;3.08;;;0.95;;
71734;SDS011;59577;52.122;5.406;2023-03-23T04:17:51;2.30;;;0.70;;
71734;SDS011;59577;52.122;5.406;2023-03-23T04:20:17;3.17;;;0.90;;
71734;SDS011;59577;52.122;5.406;2023-03-23T04:22:44;4.13;;;0.80;;
71734;SDS011;59577;52.122;5.406;2023-03-23T04:25:10;4.67;;;1.10;;
71734;SDS011;59577;52.122;5.406;2023-03-23T04:27:47;3.85;;;1.17;;
71734;SDS011;59577;52.122;5.406;2023-03-23T04:30:20;2.33;;;0.40;;
71734;SDS011;59577;52.122;5.406;2023-03-23T04:32:47;1.73;;;0.50;;
71734;SDS011;59577;52.122;5.406;2023-03-23T04:35:18;6.07;;;0.82;;
71734;SDS011;59577;52.122;5.406;2023-03-23T04:37:45;6.20;;;0.83;;
71734;SDS011;59577;52.122;5.406;2023-03-23T04:40:21;4.20;;;0.80;;
71734;SDS011;59577;52.122;5.406;2023-03-23T04:42:47;2.17;;;0.50;;
71734;SDS011;59577;52.122;5.406;2023-03-23T04:45:17;2.42;;;0.75;;
71734;SDS011;59577;52.122;5.406;2023-03-23T04:48:06;3.95;;;0.60;;
71734;SDS011;59577;52.122;5.406;2023-03-23T04:50:33;1.53;;;0.63;;
71734;SDS011;59577;52.122;5.406;2023-03-23T04:53:00;4.38;;;0.68;;
71734;SDS011;59577;52.122;5.406;2023-03-23T04:55:32;5.43;;;1.33;;
71734;SDS011;59577;52.122;5.406;2023-03-23T04:58:05;1.95;;;0.50;;
71734;SDS011;59577;52.122;5.406;2023-03-23T05:00:32;2.92;;;0.30;;
71734;SDS011;59577;52.122;5.406;2023-03-23T05:02:58;2.67;;;0.63;;
71734;SDS011;59577;52.122;5.406;2023-03-23T05:05:28;4.13;;;0.70;;
71734;SDS011;59577;52.122;5.406;2023-03-23T05:07:56;3.95;;;0.60;;
71734;SDS011;59577;52.122;5.406;2023-03-23T05:10:22;6.25;;;0.85;;
71734;SDS011;59577;52.122;5.406;2023-03-23T05:12:59;5.72;;;0.73;;
71734;SDS011;59577;52.122;5.406;2023-03-23T05:15:24;5.45;;;0.50;;
71734;SDS011;59577;52.122;5.406;2023-03-23T05:17:53;4.27;;;0.60;;
71734;SDS011;59577;52.122;5.406;2023-03-23T05:20:19;4.97;;;0.90;;
71734;SDS011;59577;52.122;5.406;2023-03-23T05:22:45;5.22;;;0.75;;
71734;SDS011;59577;52.122;5.406;2023-03-23T05:25:15;6.32;;;0.57;;
71734;SDS011;59577;52.122;5.406;2023-03-23T05:27:46;4.32;;;0.50;;
71734;SDS011;59577;52.122;5.406;2023-03-23T05:30:32;3.23;;;0.70;;
71734;SDS011;59577;52.122;5.406;2023-03-23T05:32:57;7.53;;;0.55;;
71734;SDS011;59577;52.122;5.406;2023-03-23T05:35:23;2.27;;;0.43;;
71734;SDS011;59577;52.122;5.406;2023-03-23T05:37:48;5.22;;;0.45;;
71734;SDS011;59577;52.122;5.406;2023-03-23T05:40:15;4.37;;;0.67;;
71734;SDS011;59577;52.122;5.406;2023-03-23T05:42:41;4.03;;;0.73;;
71734;SDS011;59577;52.122;5.406;2023-03-23T05:45:07;2.73;;;0.50;;
71734;SDS011;59577;52.122;5.406;2023-03-23T05:47:34;5.38;;;0.68;;
71734;SDS011;59577;52.122;5.406;2023-03-23T05:50:00;8.52;;;0.60;;
71734;SDS011;59577;52.122;5.406;2023-03-23T05:52:29;4.25;;;0.70;;
71734;SDS011;59577;52.122;5.406;2023-03-23T05:54:57;6.47;;;0.80;;
71734;SDS011;59577;52.122;5.406;2023-03-23T05:57:27;3.55;;;0.22;;
71734;SDS011;59577;52.122;5.406;2023-03-23T05:59:53;8.43;;;0.70;;
71734;SDS011;59577;52.122;5.406;2023-03-23T06:02:18;5.00;;;0.60;;
71734;SDS011;59577;52.122;5.406;2023-03-23T06:04:43;3.97;;;0.53;;
71734;SDS011;59577;52.122;5.406;2023-03-23T06:07:21;5.25;;;0.70;;
71734;SDS011;59577;52.122;5.406;2023-03-23T06:09:46;2.27;;;0.40;;
71734;SDS011;59577;52.122;5.406;2023-03-23T06:12:13;4.03;;;0.65;;
71734;SDS011;59577;52.122;5.406;2023-03-23T06:14:40;5.10;;;0.50;;
71734;SDS011;59577;52.122;5.406;2023-03-23T06:17:05;8.37;;;0.77;;
71734;SDS011;59577;52.122;5.406;2023-03-23T06:19:40;4.53;;;0.75;;
71734;SDS011;59577;52.122;5.406;2023-03-23T06:22:05;5.15;;;0.98;;
71734;SDS011;59577;52.122;5.406;2023-03-23T06:24:31;6.30;;;0.70;;
71734;SDS011;59577;52.122;5.406;2023-03-23T06:26:57;4.00;;;0.85;;
71734;SDS011;59577;52.122;5.406;2023-03-23T06:29:24;5.03;;;0.98;;
71734;SDS011;59577;52.122;5.406;2023-03-23T06:31:51;6.40;;;0.73;;
71734;SDS011;59577;52.122;5.406;2023-03-23T06:34:20;7.90;;;1.63;;
71734;SDS011;59577;52.122;5.406;2023-03-23T06:36:46;8.90;;;0.95;;
71734;SDS011;59577;52.122;5.406;2023-03-23T06:39:11;3.77;;;0.50;;
71734;SDS011;59577;52.122;5.406;2023-03-23T06:41:56;4.80;;;0.82;;
71734;SDS011;59577;52.122;5.406;2023-03-23T06:44:22;6.22;;;0.63;;
71734;SDS011;59577;52.122;5.406;2023-03-23T06:46:47;5.57;;;1.10;;
71734;SDS011;59577;52.122;5.406;2023-03-23T06:49:16;4.30;;;0.98;;
71734;SDS011;59577;52.122;5.406;2023-03-23T06:51:43;8.13;;;0.93;;
71734;SDS011;59577;52.122;5.406;2023-03-23T06:54:09;7.85;;;0.85;;
71734;SDS011;59577;52.122;5.406;2023-03-23T06:56:34;9.27;;;1.17;;
71734;SDS011;59577;52.122;5.406;2023-03-23T06:59:00;6.33;;;0.93;;
71734;SDS011;59577;52.122;5.406;2023-03-23T07:01:25;5.00;;;1.00;;
71734;SDS011;59577;52.122;5.406;2023-03-23T07:03:53;7.07;;;0.60;;
71734;SDS011;59577;52.122;5.406;2023-03-23T07:06:18;7.45;;;0.68;;
71734;SDS011;59577;52.122;5.406;2023-03-23T07:08:44;11.97;;;0.90;;
71734;SDS011;59577;52.122;5.406;2023-03-23T07:11:10;7.70;;;1.00;;
71734;SDS011;59577;52.122;5.406;2023-03-23T07:13:36;9.45;;;0.93;;
71734;SDS011;59577;52.122;5.406;2023-03-23T07:16:05;6.10;;;0.60;;
71734;SDS011;59577;52.122;5.406;2023-03-23T07:18:37;5.93;;;0.70;;
71734;SDS011;59577;52.122;5.406;2023-03-23T07:21:04;4.00;;;0.60;;
71734;SDS011;59577;52.122;5.406;2023-03-23T07:23:31;7.07;;;0.90;;
71734;SDS011;59577;52.122;5.406;2023-03-23T07:25:56;4.57;;;0.88;;
71734;SDS011;59577;52.122;5.406;2023-03-23T07:28:22;7.87;;;0.80;;
71734;SDS011;59577;52.122;5.406;2023-03-23T07:30:53;4.90;;;0.83;;
71734;SDS011;59577;52.122;5.406;2023-03-23T07:33:19;7.93;;;1.02;;
71734;SDS011;59577;52.122;5.406;2023-03-23T07:35:44;6.70;;;0.70;;
71734;SDS011;59577;52.122;5.406;2023-03-23T07:38:09;3.50;;;0.60;;
71734;SDS011;59577;52.122;5.406;2023-03-23T07:40:35;6.60;;;1.00;;
71734;SDS011;59577;52.122;5.406;2023-03-23T07:43:02;8.43;;;0.60;;
71734;SDS011;59577;52.122;5.406;2023-03-23T07:45:28;5.97;;;1.20;;
71734;SDS011;59577;52.122;5.406;2023-03-23T07:48:08;8.23;;;0.82;;
71734;SDS011;59577;52.122;5.406;2023-03-23T07:50:42;7.18;;;0.65;;
71734;SDS011;59577;52.122;5.406;2023-03-23T07:53:07;10.18;;;1.00;;
71734;SDS011;59577;52.122;5.406;2023-03-23T07:55:33;6.03;;;0.87;;
71734;SDS011;59577;52.122;5.406;2023-03-23T07:57:58;3.87;;;1.00;;
71734;SDS011;59577;52.122;5.406;2023-03-23T08:00:24;3.15;;;0.60;;
71734;SDS011;59577;52.122;5.406;2023-03-23T08:02:56;4.90;;;0.93;;
71734;SDS011;59577;52.122;5.406;2023-03-23T08:05:23;4.03;;;0.77;;
71734;SDS011;59577;52.122;5.406;2023-03-23T08:07:51;5.00;;;0.98;;
71734;SDS011;59577;52.122;5.406;2023-03-23T08:10:19;4.00;;;0.53;;
71734;SDS011;59577;52.122;5.406;2023-03-23T08:12:49;1.88;;;0.70;;
71734;SDS011;59577;52.122;5.406;2023-03-23T08:18:11;3.95;;;1.35;;
71734;SDS011;59577;52.122;5.406;2023-03-23T08:20:36;7.43;;;0.73;;
71734;SDS011;59577;52.122;5.406;2023-03-23T08:23:02;4.80;;;0.80;;
71734;SDS011;59577;52.122;5.406;2023-03-23T08:25:28;4.33;;;1.10;;
71734;SDS011;59577;52.122;5.406;2023-03-23T08:27:58;5.97;;;0.95;;
71734;SDS011;59577;52.122;5.406;2023-03-23T08:30:26;4.22;;;0.80;;
71734;SDS011;59577;52.122;5.406;2023-03-23T08:32:54;4.88;;;0.80;;
71734;SDS011;59577;52.122;5.406;2023-03-23T08:35:21;7.57;;;0.90;;
71734;SDS011;59577;52.122;5.406;2023-03-23T08:37:47;5.13;;;0.83;;
71734;SDS011;59577;52.122;5.406;2023-03-23T08:40:16;6.80;;;0.73;;
71734;SDS011;59577;52.122;5.406;2023-03-23T08:42:44;5.45;;;1.08;;
71734;SDS011;59577;52.122;5.406;2023-03-23T08:45:11;6.63;;;0.95;;
71734;SDS011;59577;52.122;5.406;2023-03-23T08:47:40;5.78;;;0.90;;
71734;SDS011;59577;52.122;5.406;2023-03-23T08:50:06;9.30;;;0.87;;
71734;SDS011;59577;52.122;5.406;2023-03-23T08:52:33;3.95;;;0.80;;
71734;SDS011;59577;52.122;5.406;2023-03-23T08:54:59;3.25;;;0.60;;
71734;SDS011;59577;52.122;5.406;2023-03-23T08:57:25;5.27;;;0.80;;
71734;SDS011;59577;52.122;5.406;2023-03-23T08:59:51;5.45;;;0.98;;
71734;SDS011;59577;52.122;5.406;2023-03-23T09:02:19;4.10;;;0.50;;
71734;SDS011;59577;52.122;5.406;2023-03-23T09:04:45;2.03;;;0.60;;
71734;SDS011;59577;52.122;5.406;2023-03-23T09:07:11;2.73;;;0.50;;
71734;SDS011;59577;52.122;5.406;2023-03-23T09:09:39;2.72;;;0.60;;
71734;SDS011;59577;52.122;5.406;2023-03-23T09:12:06;4.35;;;1.23;;
71734;SDS011;59577;52.122;5.406;2023-03-23T09:14:36;5.70;;;0.80;;
71734;SDS011;59577;52.122;5.406;2023-03-23T09:17:02;4.65;;;0.90;;
71734;SDS011;59577;52.122;5.406;2023-03-23T09:19:28;7.97;;;1.23;;
71734;SDS011;59577;52.122;5.406;2023-03-23T09:21:54;7.77;;;1.03;;
71734;SDS011;59577;52.122;5.406;2023-03-23T09:24:19;8.23;;;1.20;;
71734;SDS011;59577;52.122;5.406;2023-03-23T09:26:48;7.37;;;1.10;;
71734;SDS011;59577;52.122;5.406;2023-03-23T09:29:14;8.88;;;0.95;;
71734;SDS011;59577;52.122;5.406;2023-03-23T09:31:40;3.13;;;0.80;;
71734;SDS011;59577;52.122;5.406;2023-03-23T09:34:13;4.75;;;0.88;;
71734;SDS011;59577;52.122;5.406;2023-03-23T09:36:43;8.55;;;0.88;;
71734;SDS011;59577;52.122;5.406;2023-03-23T09:39:11;5.60;;;0.67;;
71734;SDS011;59577;52.122;5.406;2023-03-23T09:50:10;4.85;;;0.77;;
71734;SDS011;59577;52.122;5.406;2023-03-23T09:52:58;7.27;;;0.73;;
71734;SDS011;59577;52.122;5.406;2023-03-23T09:55:37;6.40;;;0.98;;
71734;SDS011;59577;52.122;5.406;2023-03-23T09:58:15;8.30;;;0.90;;
71734;SDS011;59577;52.122;5.406;2023-03-23T10:01:00;5.47;;;0.70;;
71734;SDS011;59577;52.122;5.406;2023-03-23T10:03:32;8.40;;;1.23;;
71734;SDS011;59577;52.122;5.406;2023-03-23T10:06:04;7.50;;;0.93;;
71734;SDS011;59577;52.122;5.406;2023-03-23T10:08:33;6.38;;;0.82;;
71734;SDS011;59577;52.122;5.406;2023-03-23T10:14:00;6.00;;;0.98;;
71734;SDS011;59577;52.122;5.406;2023-03-23T10:19:26;8.02;;;1.13;;
71734;SDS011;59577;52.122;5.406;2023-03-23T10:22:11;5.72;;;1.05;;
71734;SDS011;59577;52.122;5.406;2023-03-23T10:24:42;8.77;;;0.83;;
71734;SDS011;59577;52.122;5.406;2023-03-23T10:29:46;9.15;;;1.30;;
71734;SDS011;59577;52.122;5.406;2023-03-23T10:32:18;4.47;;;1.10;;
71734;SDS011;59577;52.122;5.406;2023-03-23T10:34:50;3.97;;;0.77;;
71734;SDS011;59577;52.122;5.406;2023-03-23T10:39:51;10.80;;;1.23;;
71734;SDS011;59577;52.122;5.406;2023-03-23T10:42:29;12.63;;;1.35;;
71734;SDS011;59577;52.122;5.406;2023-03-23T10:50:32;6.13;;;1.07;;
71734;SDS011;59577;52.122;5.406;2023-03-23T10:53:16;7.78;;;0.93;;
71734;SDS011;59577;52.122;5.406;2023-03-23T10:55:53;12.00;;;1.70;;
71734;SDS011;59577;52.122;5.406;2023-03-23T10:58:27;8.63;;;1.10;;
71734;SDS011;59577;52.122;5.406;2023-03-23T11:00:56;4.82;;;1.10;;
71734;SDS011;59577;52.122;5.406;2023-03-23T11:08:30;7.70;;;0.68;;
71734;SDS011;59577;52.122;5.406;2023-03-23T11:11:19;8.52;;;0.90;;
71734;SDS011;59577;52.122;5.406;2023-03-23T11:16:45;6.07;;;1.10;;
71734;SDS011;59577;52.122;5.406;2023-03-23T11:19:21;5.00;;;0.73;;
71734;SDS011;59577;52.122;5.406;2023-03-23T11:21:50;5.75;;;0.85;;
71734;SDS011;59577;52.122;5.406;2023-03-23T11:24:40;6.85;;;1.10;;
71734;SDS011;59577;52.122;5.406;2023-03-23T11:27:17;6.03;;;1.13;;
71734;SDS011;59577;52.122;5.406;2023-03-23T11:32:53;6.05;;;0.80;;
71734;SDS011;59577;52.122;5.406;2023-03-23T11:35:26;8.23;;;1.20;;
71734;SDS011;59577;52.122;5.406;2023-03-23T11:38:02;7.07;;;0.85;;
71734;SDS011;59577;52.122;5.406;2023-03-23T11:40:49;3.80;;;0.70;;
71734;SDS011;59577;52.122;5.406;2023-03-23T11:43:20;8.50;;;1.30;;
71734;SDS011;59577;52.122;5.406;2023-03-23T11:49:15;4.70;;;1.00;;
71734;SDS011;59577;52.122;5.406;2023-03-23T11:51:51;8.30;;;1.33;;
71734;SDS011;59577;52.122;5.406;2023-03-23T11:56:58;7.43;;;1.40;;
71734;SDS011;59577;52.122;5.406;2023-03-23T11:59:29;8.80;;;0.98;;
71734;SDS011;59577;52.122;5.406;2023-03-23T12:19:03;9.90;;;0.90;;
71734;SDS011;59577;52.122;5.406;2023-03-23T12:29:50;9.40;;;0.80;;
71734;SDS011;59577;52.122;5.406;2023-03-23T12:32:32;6.15;;;1.13;;
71734;SDS011;59577;52.122;5.406;2023-03-23T12:38:20;8.90;;;1.05;;
71734;SDS011;59577;52.122;5.406;2023-03-23T12:41:11;7.32;;;1.10;;
71734;SDS011;59577;52.122;5.406;2023-03-23T12:43:58;3.83;;;0.70;;
71734;SDS011;59577;52.122;5.406;2023-03-23T12:46:32;6.32;;;0.50;;
71734;SDS011;59577;52.122;5.406;2023-03-23T12:49:22;7.05;;;0.93;;
71734;SDS011;59577;52.122;5.406;2023-03-23T12:52:06;2.95;;;0.40;;
71734;SDS011;59577;52.122;5.406;2023-03-23T12:54:42;4.80;;;0.68;;
71734;SDS011;59577;52.122;5.406;2023-03-23T13:02:48;5.72;;;0.82;;
71734;SDS011;59577;52.122;5.406;2023-03-23T13:07:53;9.10;;;0.90;;
71734;SDS011;59577;52.122;5.406;2023-03-23T13:10:27;5.57;;;0.90;;
71734;SDS011;59577;52.122;5.406;2023-03-23T13:12:57;4.43;;;0.57;;
71734;SDS011;59577;52.122;5.406;2023-03-23T13:18:04;3.40;;;0.50;;
71734;SDS011;59577;52.122;5.406;2023-03-23T13:23:20;4.53;;;0.50;;
71734;SDS011;59577;52.122;5.406;2023-03-23T13:26:30;5.68;;;0.63;;
71734;SDS011;59577;52.122;5.406;2023-03-23T13:31:34;6.13;;;0.63;;
71734;SDS011;59577;52.122;5.406;2023-03-23T13:36:55;5.87;;;0.83;;
71734;SDS011;59577;52.122;5.406;2023-03-23T13:39:33;6.25;;;0.60;;
71734;SDS011;59577;52.122;5.406;2023-03-23T13:42:17;4.88;;;0.70;;
71734;SDS011;59577;52.122;5.406;2023-03-23T13:57:51;3.30;;;0.53;;
71734;SDS011;59577;52.122;5.406;2023-03-23T14:08:01;5.00;;;0.50;;
71734;SDS011;59577;52.122;5.406;2023-03-23T14:16:24;3.95;;;0.60;;
71734;SDS011;59577;52.122;5.406;2023-03-23T14:18:56;4.55;;;0.60;;
71734;SDS011;59577;52.122;5.406;2023-03-23T14:21:41;2.45;;;0.50;;
71734;SDS011;59577;52.122;5.406;2023-03-23T14:24:17;5.37;;;0.93;;
71734;SDS011;59577;52.122;5.406;2023-03-23T14:26:48;5.65;;;1.23;;
71734;SDS011;59577;52.122;5.406;2023-03-23T14:29:17;10.40;;;0.80;;
71734;SDS011;59577;52.122;5.406;2023-03-23T14:31:43;3.47;;;0.70;;
71734;SDS011;59577;52.122;5.406;2023-03-23T14:34:19;3.30;;;0.55;;
71734;SDS011;59577;52.122;5.406;2023-03-23T14:36:45;8.93;;;0.73;;
71734;SDS011;59577;52.122;5.406;2023-03-23T14:39:17;4.38;;;0.77;;
71734;SDS011;59577;52.122;5.406;2023-03-23T14:41:47;3.97;;;0.70;;
71734;SDS011;59577;52.122;5.406;2023-03-23T14:44:17;4.63;;;0.80;;
71734;SDS011;59577;52.122;5.406;2023-03-23T14:47:22;5.28;;;1.02;;
71734;SDS011;59577;52.122;5.406;2023-03-23T14:49:54;5.70;;;0.90;;
71734;SDS011;59577;52.122;5.406;2023-03-23T14:52:23;5.30;;;1.00;;
71734;SDS011;59577;52.122;5.406;2023-03-23T14:54:52;5.77;;;1.00;;
71734;SDS011;59577;52.122;5.406;2023-03-23T14:59:50;3.13;;;0.60;;
71734;SDS011;59577;52.122;5.406;2023-03-23T15:02:30;8.23;;;0.77;;
71734;SDS011;59577;52.122;5.406;2023-03-23T15:05:22;8.00;;;0.73;;
71734;SDS011;59577;52.122;5.406;2023-03-23T15:07:52;4.47;;;0.93;;
71734;SDS011;59577;52.122;5.406;2023-03-23T15:10:22;6.35;;;0.85;;
71734;SDS011;59577;52.122;5.406;2023-03-23T15:12:49;7.43;;;0.90;;
71734;SDS011;59577;52.122;5.406;2023-03-23T15:15:21;6.95;;;0.77;;
71734;SDS011;59577;52.122;5.406;2023-03-23T15:17:50;8.57;;;0.95;;
71734;SDS011;59577;52.122;5.406;2023-03-23T15:20:21;4.27;;;0.70;;
71734;SDS011;59577;52.122;5.406;2023-03-23T15:22:49;5.30;;;0.57;;
71734;SDS011;59577;52.122;5.406;2023-03-23T15:28:16;8.10;;;1.50;;
71734;SDS011;59577;52.122;5.406;2023-03-23T15:30:53;8.83;;;0.70;;
71734;SDS011;59577;52.122;5.406;2023-03-23T15:33:23;4.75;;;0.60;;
71734;SDS011;59577;52.122;5.406;2023-03-23T15:35:53;5.57;;;0.60;;
71734;SDS011;59577;52.122;5.406;2023-03-23T15:40:56;31.05;;;1.33;;
71734;SDS011;59577;52.122;5.406;2023-03-23T15:45:57;7.10;;;0.90;;
71734;SDS011;59577;52.122;5.406;2023-03-23T15:48:31;6.13;;;0.70;;
71734;SDS011;59577;52.122;5.406;2023-03-23T15:51:19;4.43;;;1.00;;
71734;SDS011;59577;52.122;5.406;2023-03-23T15:53:46;6.57;;;0.93;;
71734;SDS011;59577;52.122;5.406;2023-03-23T15:56:13;9.10;;;1.50;;
71734;SDS011;59577;52.122;5.406;2023-03-23T15:58:39;15.05;;;0.85;;
71734;SDS011;59577;52.122;5.406;2023-03-23T16:01:20;2.90;;;0.60;;
71734;SDS011;59577;52.122;5.406;2023-03-23T16:06:29;8.50;;;0.73;;
71734;SDS011;59577;52.122;5.406;2023-03-23T16:09:01;6.07;;;0.93;;
71734;SDS011;59577;52.122;5.406;2023-03-23T16:11:29;4.38;;;0.95;;
71734;SDS011;59577;52.122;5.406;2023-03-23T16:14:04;7.72;;;0.90;;
71734;SDS011;59577;52.122;5.406;2023-03-23T16:16:32;6.25;;;0.80;;
71734;SDS011;59577;52.122;5.406;2023-03-23T16:19:02;4.40;;;0.47;;
71734;SDS011;59577;52.122;5.406;2023-03-23T16:21:38;8.63;;;0.80;;
71734;SDS011;59577;52.122;5.406;2023-03-23T16:24:05;5.82;;;0.77;;
71734;SDS011;59577;52.122;5.406;2023-03-23T16:26:31;4.22;;;0.70;;
71734;SDS011;59577;52.122;5.406;2023-03-23T16:28:58;10.93;;;1.10;;
71734;SDS011;59577;52.122;5.406;2023-03-23T16:31:42;5.37;;;0.90;;
71734;SDS011;59577;52.122;5.406;2023-03-23T16:34:08;5.88;;;1.23;;
71734;SDS011;59577;52.122;5.406;2023-03-23T16:36:35;4.55;;;0.88;;
71734;SDS011;59577;52.122;5.406;2023-03-23T16:39:02;6.80;;;0.98;;
71734;SDS011;59577;52.122;5.406;2023-03-23T16:41:29;4.03;;;0.52;;
71734;SDS011;59577;52.122;5.406;2023-03-23T16:43:56;6.17;;;0.73;;
71734;SDS011;59577;52.122;5.406;2023-03-23T16:46:22;7.10;;;1.10;;
71734;SDS011;59577;52.122;5.406;2023-03-23T16:48:49;6.90;;;1.13;;
71734;SDS011;59577;52.122;5.406;2023-03-23T16:51:15;7.55;;;1.17;;
71734;SDS011;59577;52.122;5.406;2023-03-23T16:53:42;4.40;;;0.50;;
71734;SDS011;59577;52.122;5.406;2023-03-23T16:56:08;5.80;;;0.87;;
71734;SDS011;59577;52.122;5.406;2023-03-23T16:58:35;8.90;;;1.55;;
71734;SDS011;59577;52.122;5.406;2023-03-23T17:01:02;1.83;;;0.70;;
71734;SDS011;59577;52.122;5.406;2023-03-23T17:03:29;6.78;;;1.20;;
71734;SDS011;59577;52.122;5.406;2023-03-23T17:05:56;3.67;;;0.80;;
71734;SDS011;59577;52.122;5.406;2023-03-23T17:08:25;4.77;;;0.60;;
71734;SDS011;59577;52.122;5.406;2023-03-23T17:10:51;8.90;;;1.85;;
71734;SDS011;59577;52.122;5.406;2023-03-23T17:13:18;3.55;;;0.80;;
71734;SDS011;59577;52.122;5.406;2023-03-23T17:15:45;5.85;;;0.82;;
71734;SDS011;59577;52.122;5.406;2023-03-23T17:18:13;6.22;;;1.00;;
71734;SDS011;59577;52.122;5.406;2023-03-23T17:20:41;6.93;;;0.87;;
71734;SDS011;59577;52.122;5.406;2023-03-23T17:26:04;6.03;;;0.75;;
71734;SDS011;59577;52.122;5.406;2023-03-23T17:28:34;5.63;;;0.90;;
71734;SDS011;59577;52.122;5.406;2023-03-23T17:31:02;6.45;;;0.85;;
71734;SDS011;59577;52.122;5.406;2023-03-23T17:33:49;4.07;;;0.90;;
71734;SDS011;59577;52.122;5.406;2023-03-23T17:36:17;10.38;;;1.20;;
71734;SDS011;59577;52.122;5.406;2023-03-23T17:38:44;10.05;;;1.20;;
71734;SDS011;59577;52.122;5.406;2023-03-23T17:41:11;4.35;;;1.02;;
71734;SDS011;59577;52.122;5.406;2023-03-23T17:43:38;3.42;;;0.88;;
71734;SDS011;59577;52.122;5.406;2023-03-23T17:46:08;6.67;;;1.00;;
71734;SDS011;59577;52.122;5.406;2023-03-23T17:48:36;7.50;;;1.10;;